sensor_id;sensor_type;location;lat;lon;timestamp;temperature;humidity
64620;DHT22;51029;51.058;13.826;2023-08-17T00:02:11;21.30;99.90
64620;DHT22;51029;51.058;13.826;2023-08-17T00:04:37;21.20;99.90
64620;DHT22;51029;51.058;13.826;2023-08-17T00:07:03;21.20;99.90
64620;DHT22;51029;51.058;13.826;2023-08-17T00:09:29;21.10;99.90
64620;DHT22;51029;51.058;13.826;2023-08-17T00:11:54;21.00;99.90
64620;DHT22;51029;51.058;13.826;2023-08-17T00:14:20;21.00;99.90
64620;DHT22;51029;51.058;13.826;2023-08-17T00:16:45;21.00;99.90
64620;DHT22;51029;51.058;13.826;2023-08-17T00:19:11;20.80;99.90
64620;DHT22;51029;51.058;13.826;2023-08-17T00:21:37;20.80;99.90
64620;DHT22;51029;51.058;13.826;2023-08-17T00:24:03;20.70;99.90
64620;DHT22;51029;51.058;13.826;2023-08-17T00:26:29;20.70;99.90
64620;DHT22;51029;51.058;13.826;2023-08-17T00:28:54;20.70;99.90
64620;DHT22;51029;51.058;13.826;2023-08-17T00:31:20;20.70;99.90
64620;DHT22;51029;51.058;13.826;2023-08-17T00:33:46;20.70;99.90
64620;DHT22;51029;51.058;13.826;2023-08-17T00:36:11;20.60;99.90
64620;DHT22;51029;51.058;13.826;2023-08-17T00:38:37;20.60;99.90
64620;DHT22;51029;51.058;13.826;2023-08-17T00:41:02;20.50;99.90
64620;DHT22;51029;51.058;13.826;2023-08-17T00:43:28;20.50;99.90
64620;DHT22;51029;51.058;13.826;2023-08-17T00:45:53;20.50;99.90
64620;DHT22;51029;51.058;13.826;2023-08-17T00:48:19;20.40;99.90
64620;DHT22;51029;51.058;13.826;2023-08-17T00:50:48;20.40;99.90
64620;DHT22;51029;51.058;13.826;2023-08-17T00:53:14;20.30;99.90
64620;DHT22;51029;51.058;13.826;2023-08-17T00:55:42;20.30;99.90
64620;DHT22;51029;51.058;13.826;2023-08-17T00:58:08;20.20;99.90
64620;DHT22;51029;51.058;13.826;2023-08-17T01:00:33;20.20;99.90
64620;DHT22;51029;51.058;13.826;2023-08-17T01:02:59;20.20;99.90
64620;DHT22;51029;51.058;13.826;2023-08-17T01:05:25;20.20;99.90
64620;DHT22;51029;51.058;13.826;2023-08-17T01:07:50;20.20;99.90
64620;DHT22;51029;51.058;13.826;2023-08-17T01:10:16;20.10;99.90
64620;DHT22;51029;51.058;13.826;2023-08-17T01:13:06;20.10;99.90
64620;DHT22;51029;51.058;13.826;2023-08-17T01:15:37;20.10;99.90
64620;DHT22;51029;51.058;13.826;2023-08-17T01:20:52;20.00;99.90
64620;DHT22;51029;51.058;13.826;2023-08-17T01:23:18;20.00;99.90
64620;DHT22;51029;51.058;13.826;2023-08-17T01:25:44;19.90;99.90
64620;DHT22;51029;51.058;13.826;2023-08-17T01:28:10;19.90;99.90
64620;DHT22;51029;51.058;13.826;2023-08-17T01:30:40;19.90;99.90
64620;DHT22;51029;51.058;13.826;2023-08-17T01:33:11;19.80;99.90
64620;DHT22;51029;51.058;13.826;2023-08-17T01:35:57;19.70;99.90
64620;DHT22;51029;51.058;13.826;2023-08-17T01:38:26;19.70;99.90
64620;DHT22;51029;51.058;13.826;2023-08-17T01:40:55;19.70;99.90
64620;DHT22;51029;51.058;13.826;2023-08-17T01:43:22;19.70;99.90
64620;DHT22;51029;51.058;13.826;2023-08-17T01:45:48;19.70;99.90
64620;DHT22;51029;51.058;13.826;2023-08-17T01:48:13;19.70;99.90
64620;DHT22;51029;51.058;13.826;2023-08-17T01:50:39;19.80;99.90
64620;DHT22;51029;51.058;13.826;2023-08-17T01:53:04;19.80;99.90
64620;DHT22;51029;51.058;13.826;2023-08-17T01:55:30;19.70;99.90
64620;DHT22;51029;51.058;13.826;2023-08-17T01:57:56;19.80;99.90
64620;DHT22;51029;51.058;13.826;2023-08-17T02:00:21;19.70;99.90
64620;DHT22;51029;51.058;13.826;2023-08-17T02:02:47;19.70;99.90
64620;DHT22;51029;51.058;13.826;2023-08-17T02:05:12;19.70;99.90
64620;DHT22;51029;51.058;13.826;2023-08-17T02:07:38;19.60;99.90
64620;DHT22;51029;51.058;13.826;2023-08-17T02:10:04;19.70;99.90
64620;DHT22;51029;51.058;13.826;2023-08-17T02:12:29;19.70;99.90
64620;DHT22;51029;51.058;13.826;2023-08-17T02:14:55;19.70;99.90
64620;DHT22;51029;51.058;13.826;2023-08-17T02:17:20;19.70;99.90
64620;DHT22;51029;51.058;13.826;2023-08-17T02:19:47;19.70;99.90
64620;DHT22;51029;51.058;13.826;2023-08-17T02:22:13;19.70;99.90
64620;DHT22;51029;51.058;13.826;2023-08-17T02:24:39;19.70;99.90
64620;DHT22;51029;51.058;13.826;2023-08-17T02:27:04;19.80;99.90
64620;DHT22;51029;51.058;13.826;2023-08-17T02:29:30;19.80;99.90
64620;DHT22;51029;51.058;13.826;2023-08-17T02:31:56;19.80;99.90
64620;DHT22;51029;51.058;13.826;2023-08-17T02:34:21;19.80;99.90
64620;DHT22;51029;51.058;13.826;2023-08-17T02:36:47;19.80;99.90
64620;DHT22;51029;51.058;13.826;2023-08-17T02:39:12;19.70;99.90
64620;DHT22;51029;51.058;13.826;2023-08-17T02:41:38;19.70;99.90
64620;DHT22;51029;51.058;13.826;2023-08-17T02:44:04;19.70;99.90
64620;DHT22;51029;51.058;13.826;2023-08-17T02:46:30;19.70;99.90
64620;DHT22;51029;51.058;13.826;2023-08-17T02:48:55;19.70;99.90
64620;DHT22;51029;51.058;13.826;2023-08-17T02:51:21;19.70;99.90
64620;DHT22;51029;51.058;13.826;2023-08-17T02:53:46;19.80;99.90
64620;DHT22;51029;51.058;13.826;2023-08-17T02:56:12;19.80;99.90
64620;DHT22;51029;51.058;13.826;2023-08-17T02:58:38;19.80;99.90
64620;DHT22;51029;51.058;13.826;2023-08-17T03:01:07;19.80;99.90
64620;DHT22;51029;51.058;13.826;2023-08-17T03:03:33;19.70;99.90
64620;DHT22;51029;51.058;13.826;2023-08-17T03:05:59;19.70;99.90
64620;DHT22;51029;51.058;13.826;2023-08-17T03:08:24;19.70;99.90
64620;DHT22;51029;51.058;13.826;2023-08-17T03:10:50;19.70;99.90
64620;DHT22;51029;51.058;13.826;2023-08-17T03:13:15;19.60;99.90
64620;DHT22;51029;51.058;13.826;2023-08-17T03:15:41;19.60;99.90
64620;DHT22;51029;51.058;13.826;2023-08-17T03:18:07;19.60;99.90
64620;DHT22;51029;51.058;13.826;2023-08-17T03:20:32;19.50;99.90
64620;DHT22;51029;51.058;13.826;2023-08-17T03:22:58;19.50;99.90
64620;DHT22;51029;51.058;13.826;2023-08-17T03:25:23;19.50;99.90
64620;DHT22;51029;51.058;13.826;2023-08-17T03:27:50;19.50;99.90
64620;DHT22;51029;51.058;13.826;2023-08-17T03:30:15;19.50;99.90
64620;DHT22;51029;51.058;13.826;2023-08-17T03:32:41;19.40;99.90
64620;DHT22;51029;51.058;13.826;2023-08-17T03:35:08;19.30;99.90
64620;DHT22;51029;51.058;13.826;2023-08-17T03:37:33;19.30;99.90
64620;DHT22;51029;51.058;13.826;2023-08-17T03:39:59;19.20;99.90
64620;DHT22;51029;51.058;13.826;2023-08-17T03:42:26;19.20;99.90
64620;DHT22;51029;51.058;13.826;2023-08-17T03:44:52;19.20;99.90
64620;DHT22;51029;51.058;13.826;2023-08-17T03:47:18;19.20;99.90
64620;DHT22;51029;51.058;13.826;2023-08-17T03:49:43;19.10;99.90
64620;DHT22;51029;51.058;13.826;2023-08-17T03:52:09;19.10;99.90
64620;DHT22;51029;51.058;13.826;2023-08-17T03:54:35;19.10;99.90
64620;DHT22;51029;51.058;13.826;2023-08-17T03:57:01;19.20;99.90
64620;DHT22;51029;51.058;13.826;2023-08-17T03:59:27;19.20;99.90
64620;DHT22;51029;51.058;13.826;2023-08-17T04:01:53;19.20;99.90
64620;DHT22;51029;51.058;13.826;2023-08-17T04:04:18;19.30;99.90
64620;DHT22;51029;51.058;13.826;2023-08-17T04:06:44;19.20;99.90
64620;DHT22;51029;51.058;13.826;2023-08-17T04:09:10;19.20;99.90
64620;DHT22;51029;51.058;13.826;2023-08-17T04:11:35;19.30;99.90
64620;DHT22;51029;51.058;13.826;2023-08-17T04:14:04;19.30;99.90
64620;DHT22;51029;51.058;13.826;2023-08-17T04:16:30;19.20;99.90
64620;DHT22;51029;51.058;13.826;2023-08-17T04:18:56;19.30;99.90
64620;DHT22;51029;51.058;13.826;2023-08-17T04:21:21;19.20;99.90
64620;DHT22;51029;51.058;13.826;2023-08-17T04:23:47;19.40;99.90
64620;DHT22;51029;51.058;13.826;2023-08-17T04:26:12;19.50;99.90
64620;DHT22;51029;51.058;13.826;2023-08-17T04:28:38;19.70;99.90
64620;DHT22;51029;51.058;13.826;2023-08-17T04:31:04;19.80;99.90
64620;DHT22;51029;51.058;13.826;2023-08-17T04:33:29;19.90;99.90
64620;DHT22;51029;51.058;13.826;2023-08-17T04:35:55;20.00;99.90
64620;DHT22;51029;51.058;13.826;2023-08-17T04:38:21;20.00;99.90
64620;DHT22;51029;51.058;13.826;2023-08-17T04:40:47;20.10;99.90
64620;DHT22;51029;51.058;13.826;2023-08-17T04:43:12;20.10;99.90
64620;DHT22;51029;51.058;13.826;2023-08-17T04:45:38;20.10;99.90
64620;DHT22;51029;51.058;13.826;2023-08-17T04:48:04;20.10;99.90
64620;DHT22;51029;51.058;13.826;2023-08-17T04:50:30;20.20;99.90
64620;DHT22;51029;51.058;13.826;2023-08-17T04:52:55;20.30;99.90
64620;DHT22;51029;51.058;13.826;2023-08-17T04:55:21;20.40;99.90
64620;DHT22;51029;51.058;13.826;2023-08-17T04:57:47;20.40;99.90
64620;DHT22;51029;51.058;13.826;2023-08-17T05:00:15;20.40;99.90
64620;DHT22;51029;51.058;13.826;2023-08-17T05:02:41;20.40;99.90
64620;DHT22;51029;51.058;13.826;2023-08-17T05:05:09;20.50;99.90
64620;DHT22;51029;51.058;13.826;2023-08-17T05:07:35;20.50;99.90
64620;DHT22;51029;51.058;13.826;2023-08-17T05:10:01;20.40;99.90
64620;DHT22;51029;51.058;13.826;2023-08-17T05:12:27;20.40;99.90
64620;DHT22;51029;51.058;13.826;2023-08-17T05:14:52;20.40;99.90
64620;DHT22;51029;51.058;13.826;2023-08-17T05:17:18;20.40;99.90
64620;DHT22;51029;51.058;13.826;2023-08-17T05:19:43;20.50;99.90
64620;DHT22;51029;51.058;13.826;2023-08-17T05:22:10;20.40;99.90
64620;DHT22;51029;51.058;13.826;2023-08-17T05:24:36;20.60;99.90
64620;DHT22;51029;51.058;13.826;2023-08-17T05:27:01;20.60;99.90
64620;DHT22;51029;51.058;13.826;2023-08-17T05:29:27;20.80;99.90
64620;DHT22;51029;51.058;13.826;2023-08-17T05:31:52;20.90;99.90
64620;DHT22;51029;51.058;13.826;2023-08-17T05:34:18;20.90;99.90
64620;DHT22;51029;51.058;13.826;2023-08-17T05:36:43;21.00;99.90
64620;DHT22;51029;51.058;13.826;2023-08-17T05:39:09;21.10;99.90
64620;DHT22;51029;51.058;13.826;2023-08-17T05:41:35;21.10;99.90
64620;DHT22;51029;51.058;13.826;2023-08-17T05:44:00;21.30;99.90
64620;DHT22;51029;51.058;13.826;2023-08-17T05:46:26;21.40;99.90
64620;DHT22;51029;51.058;13.826;2023-08-17T05:48:51;21.50;99.90
64620;DHT22;51029;51.058;13.826;2023-08-17T05:51:17;21.50;99.90
64620;DHT22;51029;51.058;13.826;2023-08-17T05:53:42;21.60;99.90
64620;DHT22;51029;51.058;13.826;2023-08-17T05:56:08;21.70;99.90
64620;DHT22;51029;51.058;13.826;2023-08-17T05:58:33;21.90;99.90
64620;DHT22;51029;51.058;13.826;2023-08-17T06:01:06;22.20;99.90
64620;DHT22;51029;51.058;13.826;2023-08-17T06:03:32;22.20;99.90
64620;DHT22;51029;51.058;13.826;2023-08-17T06:05:58;22.20;99.90
64620;DHT22;51029;51.058;13.826;2023-08-17T06:08:24;22.30;99.90
64620;DHT22;51029;51.058;13.826;2023-08-17T06:10:49;22.40;99.90
64620;DHT22;51029;51.058;13.826;2023-08-17T06:13:15;22.30;99.90
64620;DHT22;51029;51.058;13.826;2023-08-17T06:15:40;22.10;99.90
64620;DHT22;51029;51.058;13.826;2023-08-17T06:18:06;22.00;99.90
64620;DHT22;51029;51.058;13.826;2023-08-17T06:20:31;21.90;99.90
64620;DHT22;51029;51.058;13.826;2023-08-17T06:22:57;21.90;99.90
64620;DHT22;51029;51.058;13.826;2023-08-17T06:25:22;21.90;99.90
64620;DHT22;51029;51.058;13.826;2023-08-17T06:27:51;21.90;99.90
64620;DHT22;51029;51.058;13.826;2023-08-17T06:30:17;21.90;99.90
64620;DHT22;51029;51.058;13.826;2023-08-17T06:32:43;22.00;99.90
64620;DHT22;51029;51.058;13.826;2023-08-17T06:35:09;22.00;99.90
64620;DHT22;51029;51.058;13.826;2023-08-17T06:37:34;21.90;99.90
64620;DHT22;51029;51.058;13.826;2023-08-17T06:40:01;21.90;99.90
64620;DHT22;51029;51.058;13.826;2023-08-17T06:42:26;22.00;99.90
64620;DHT22;51029;51.058;13.826;2023-08-17T06:44:52;22.00;99.90
64620;DHT22;51029;51.058;13.826;2023-08-17T06:47:17;22.20;99.90
64620;DHT22;51029;51.058;13.826;2023-08-17T06:49:43;22.40;99.90
64620;DHT22;51029;51.058;13.826;2023-08-17T06:52:08;22.50;99.90
64620;DHT22;51029;51.058;13.826;2023-08-17T06:54:34;22.50;99.90
64620;DHT22;51029;51.058;13.826;2023-08-17T06:57:00;22.50;99.90
64620;DHT22;51029;51.058;13.826;2023-08-17T06:59:26;22.40;99.90
64620;DHT22;51029;51.058;13.826;2023-08-17T07:01:52;22.40;99.90
64620;DHT22;51029;51.058;13.826;2023-08-17T07:04:17;22.60;99.90
64620;DHT22;51029;51.058;13.826;2023-08-17T07:06:43;22.80;99.90
64620;DHT22;51029;51.058;13.826;2023-08-17T07:09:09;22.80;99.90
64620;DHT22;51029;51.058;13.826;2023-08-17T07:11:37;23.00;99.90
64620;DHT22;51029;51.058;13.826;2023-08-17T07:14:03;23.30;99.90
64620;DHT22;51029;51.058;13.826;2023-08-17T07:16:29;23.60;99.90
64620;DHT22;51029;51.058;13.826;2023-08-17T07:18:54;23.90;99.90
64620;DHT22;51029;51.058;13.826;2023-08-17T07:21:20;24.20;99.90
64620;DHT22;51029;51.058;13.826;2023-08-17T07:23:45;24.40;99.90
64620;DHT22;51029;51.058;13.826;2023-08-17T07:26:12;24.50;99.90
64620;DHT22;51029;51.058;13.826;2023-08-17T07:28:37;24.60;99.90
64620;DHT22;51029;51.058;13.826;2023-08-17T07:31:03;24.60;99.90
64620;DHT22;51029;51.058;13.826;2023-08-17T07:33:31;24.40;99.90
64620;DHT22;51029;51.058;13.826;2023-08-17T07:35:56;24.40;99.90
64620;DHT22;51029;51.058;13.826;2023-08-17T07:38:23;24.60;99.90
64620;DHT22;51029;51.058;13.826;2023-08-17T07:40:49;24.90;99.90
64620;DHT22;51029;51.058;13.826;2023-08-17T07:43:14;24.90;99.90
64620;DHT22;51029;51.058;13.826;2023-08-17T07:45:40;24.80;99.90
64620;DHT22;51029;51.058;13.826;2023-08-17T07:48:06;24.80;99.90
64620;DHT22;51029;51.058;13.826;2023-08-17T07:50:31;24.80;99.90
64620;DHT22;51029;51.058;13.826;2023-08-17T07:52:57;24.80;99.90
64620;DHT22;51029;51.058;13.826;2023-08-17T07:55:22;24.80;99.90
64620;DHT22;51029;51.058;13.826;2023-08-17T07:57:48;24.90;99.90
64620;DHT22;51029;51.058;13.826;2023-08-17T08:00:14;25.10;99.90
64620;DHT22;51029;51.058;13.826;2023-08-17T08:02:40;25.30;99.90
64620;DHT22;51029;51.058;13.826;2023-08-17T08:05:06;25.60;99.90
64620;DHT22;51029;51.058;13.826;2023-08-17T08:07:31;25.50;99.90
64620;DHT22;51029;51.058;13.826;2023-08-17T08:09:57;25.50;99.90
64620;DHT22;51029;51.058;13.826;2023-08-17T08:12:23;25.40;99.90
64620;DHT22;51029;51.058;13.826;2023-08-17T08:14:48;25.30;99.90
64620;DHT22;51029;51.058;13.826;2023-08-17T08:17:14;25.30;99.90
64620;DHT22;51029;51.058;13.826;2023-08-17T08:19:40;25.50;99.90
64620;DHT22;51029;51.058;13.826;2023-08-17T08:22:05;25.70;99.90
64620;DHT22;51029;51.058;13.826;2023-08-17T08:24:31;25.70;99.90
64620;DHT22;51029;51.058;13.826;2023-08-17T08:27:00;25.80;99.90
64620;DHT22;51029;51.058;13.826;2023-08-17T08:29:26;26.10;99.90
64620;DHT22;51029;51.058;13.826;2023-08-17T08:31:52;26.40;99.90
64620;DHT22;51029;51.058;13.826;2023-08-17T08:34:18;26.60;99.90
64620;DHT22;51029;51.058;13.826;2023-08-17T08:36:44;26.50;99.90
64620;DHT22;51029;51.058;13.826;2023-08-17T08:39:10;26.40;99.90
64620;DHT22;51029;51.058;13.826;2023-08-17T08:41:37;26.60;99.90
64620;DHT22;51029;51.058;13.826;2023-08-17T08:44:03;26.90;99.90
64620;DHT22;51029;51.058;13.826;2023-08-17T08:46:30;27.10;99.90
64620;DHT22;51029;51.058;13.826;2023-08-17T08:48:58;27.20;99.90
64620;DHT22;51029;51.058;13.826;2023-08-17T08:51:27;27.10;99.90
64620;DHT22;51029;51.058;13.826;2023-08-17T08:54:02;27.50;99.90
64620;DHT22;51029;51.058;13.826;2023-08-17T08:56:32;28.00;99.90
64620;DHT22;51029;51.058;13.826;2023-08-17T08:59:00;28.80;99.90
64620;DHT22;51029;51.058;13.826;2023-08-17T09:01:27;29.30;99.90
64620;DHT22;51029;51.058;13.826;2023-08-17T09:03:55;29.50;99.90
64620;DHT22;51029;51.058;13.826;2023-08-17T09:06:22;29.40;99.90
64620;DHT22;51029;51.058;13.826;2023-08-17T09:08:50;29.40;99.90
64620;DHT22;51029;51.058;13.826;2023-08-17T09:11:16;29.90;99.90
64620;DHT22;51029;51.058;13.826;2023-08-17T09:13:42;30.50;99.90
64620;DHT22;51029;51.058;13.826;2023-08-17T09:16:07;30.40;99.90
64620;DHT22;51029;51.058;13.826;2023-08-17T09:18:34;30.40;99.90
64620;DHT22;51029;51.058;13.826;2023-08-17T09:21:00;31.10;99.90
64620;DHT22;51029;51.058;13.826;2023-08-17T09:23:26;31.30;99.90
64620;DHT22;51029;51.058;13.826;2023-08-17T09:25:52;31.50;99.90
64620;DHT22;51029;51.058;13.826;2023-08-17T09:28:20;31.80;99.90
64620;DHT22;51029;51.058;13.826;2023-08-17T09:30:53;31.90;99.90
64620;DHT22;51029;51.058;13.826;2023-08-17T09:33:24;32.40;99.90
64620;DHT22;51029;51.058;13.826;2023-08-17T09:35:50;33.00;99.90
64620;DHT22;51029;51.058;13.826;2023-08-17T09:38:16;33.40;99.90
64620;DHT22;51029;51.058;13.826;2023-08-17T09:40:42;33.70;99.90
64620;DHT22;51029;51.058;13.826;2023-08-17T09:43:09;33.90;99.90
64620;DHT22;51029;51.058;13.826;2023-08-17T09:45:39;33.60;99.90
64620;DHT22;51029;51.058;13.826;2023-08-17T09:48:06;34.10;99.90
64620;DHT22;51029;51.058;13.826;2023-08-17T09:50:31;34.00;99.90
64620;DHT22;51029;51.058;13.826;2023-08-17T09:52:57;34.60;99.90
64620;DHT22;51029;51.058;13.826;2023-08-17T09:55:23;35.10;99.90
64620;DHT22;51029;51.058;13.826;2023-08-17T09:57:50;35.80;99.90
64620;DHT22;51029;51.058;13.826;2023-08-17T10:00:20;36.40;99.90
64620;DHT22;51029;51.058;13.826;2023-08-17T10:02:49;37.10;99.90
64620;DHT22;51029;51.058;13.826;2023-08-17T10:05:20;37.40;98.40
64620;DHT22;51029;51.058;13.826;2023-08-17T10:07:54;37.50;98.00
64620;DHT22;51029;51.058;13.826;2023-08-17T10:10:24;37.80;96.80
64620;DHT22;51029;51.058;13.826;2023-08-17T10:13:09;37.30;96.40
64620;DHT22;51029;51.058;13.826;2023-08-17T10:15:38;36.70;95.70
64620;DHT22;51029;51.058;13.826;2023-08-17T10:18:45;36.90;95.50
64620;DHT22;51029;51.058;13.826;2023-08-17T10:21:27;36.60;95.40
64620;DHT22;51029;51.058;13.826;2023-08-17T10:23:53;37.00;94.30
64620;DHT22;51029;51.058;13.826;2023-08-17T10:26:21;37.40;95.10
64620;DHT22;51029;51.058;13.826;2023-08-17T10:28:48;38.70;91.80
64620;DHT22;51029;51.058;13.826;2023-08-17T10:31:14;38.50;92.00
64620;DHT22;51029;51.058;13.826;2023-08-17T10:33:40;39.50;88.50
64620;DHT22;51029;51.058;13.826;2023-08-17T10:36:09;40.50;86.90
64620;DHT22;51029;51.058;13.826;2023-08-17T10:38:35;40.90;84.80
64620;DHT22;51029;51.058;13.826;2023-08-17T10:41:10;41.90;80.00
64620;DHT22;51029;51.058;13.826;2023-08-17T10:43:56;42.60;76.10
64620;DHT22;51029;51.058;13.826;2023-08-17T10:46:37;43.70;71.30
64620;DHT22;51029;51.058;13.826;2023-08-17T10:49:07;44.40;66.60
64620;DHT22;51029;51.058;13.826;2023-08-17T10:51:33;45.20;62.60
64620;DHT22;51029;51.058;13.826;2023-08-17T10:54:02;46.10;59.10
64620;DHT22;51029;51.058;13.826;2023-08-17T10:56:29;46.40;56.10
64620;DHT22;51029;51.058;13.826;2023-08-17T10:58:58;47.50;54.60
64620;DHT22;51029;51.058;13.826;2023-08-17T11:01:34;47.00;51.60
64620;DHT22;51029;51.058;13.826;2023-08-17T11:04:11;47.80;50.90
64620;DHT22;51029;51.058;13.826;2023-08-17T11:06:37;48.50;48.90
64620;DHT22;51029;51.058;13.826;2023-08-17T11:09:06;48.90;47.20
64620;DHT22;51029;51.058;13.826;2023-08-17T11:11:32;49.30;45.90
64620;DHT22;51029;51.058;13.826;2023-08-17T11:13:58;49.80;44.00
64620;DHT22;51029;51.058;13.826;2023-08-17T11:16:24;50.00;43.50
64620;DHT22;51029;51.058;13.826;2023-08-17T11:18:49;50.60;41.40
64620;DHT22;51029;51.058;13.826;2023-08-17T11:21:16;51.30;40.90
64620;DHT22;51029;51.058;13.826;2023-08-17T11:23:42;52.20;40.30
64620;DHT22;51029;51.058;13.826;2023-08-17T11:26:08;52.20;38.40
64620;DHT22;51029;51.058;13.826;2023-08-17T11:28:34;52.50;38.00
64620;DHT22;51029;51.058;13.826;2023-08-17T11:31:11;52.30;37.70
64620;DHT22;51029;51.058;13.826;2023-08-17T11:33:38;52.90;37.00
64620;DHT22;51029;51.058;13.826;2023-08-17T11:36:05;53.90;35.90
64620;DHT22;51029;51.058;13.826;2023-08-17T11:38:42;54.50;34.80
64620;DHT22;51029;51.058;13.826;2023-08-17T11:41:08;54.70;33.60
64620;DHT22;51029;51.058;13.826;2023-08-17T11:43:34;55.50;32.90
64620;DHT22;51029;51.058;13.826;2023-08-17T11:46:01;55.70;32.10
64620;DHT22;51029;51.058;13.826;2023-08-17T11:48:27;56.20;31.10
64620;DHT22;51029;51.058;13.826;2023-08-17T11:50:53;56.80;30.20
64620;DHT22;51029;51.058;13.826;2023-08-17T11:53:20;57.50;29.00
64620;DHT22;51029;51.058;13.826;2023-08-17T11:55:46;57.90;28.50
64620;DHT22;51029;51.058;13.826;2023-08-17T11:58:12;57.30;27.90
64620;DHT22;51029;51.058;13.826;2023-08-17T12:00:42;57.00;28.40
64620;DHT22;51029;51.058;13.826;2023-08-17T12:03:13;57.40;27.80
64620;DHT22;51029;51.058;13.826;2023-08-17T12:05:40;57.60;26.80
64620;DHT22;51029;51.058;13.826;2023-08-17T12:08:07;58.20;26.60
64620;DHT22;51029;51.058;13.826;2023-08-17T12:10:33;58.50;27.30
64620;DHT22;51029;51.058;13.826;2023-08-17T12:12:59;59.20;25.60
64620;DHT22;51029;51.058;13.826;2023-08-17T12:15:33;58.80;25.80
64620;DHT22;51029;51.058;13.826;2023-08-17T12:18:01;58.90;24.80
64620;DHT22;51029;51.058;13.826;2023-08-17T12:20:27;58.40;25.80
64620;DHT22;51029;51.058;13.826;2023-08-17T12:22:52;59.60;25.00
64620;DHT22;51029;51.058;13.826;2023-08-17T12:25:21;57.90;24.90
64620;DHT22;51029;51.058;13.826;2023-08-17T12:27:48;58.20;24.60
64620;DHT22;51029;51.058;13.826;2023-08-17T12:30:27;59.20;24.20
64620;DHT22;51029;51.058;13.826;2023-08-17T12:32:53;60.10;24.00
64620;DHT22;51029;51.058;13.826;2023-08-17T12:35:19;60.60;23.20
64620;DHT22;51029;51.058;13.826;2023-08-17T12:37:47;55.40;23.70
64620;DHT22;51029;51.058;13.826;2023-08-17T12:40:13;50.90;26.70
64620;DHT22;51029;51.058;13.826;2023-08-17T12:42:38;48.30;28.30
64620;DHT22;51029;51.058;13.826;2023-08-17T12:45:04;46.60;30.20
64620;DHT22;51029;51.058;13.826;2023-08-17T12:47:30;44.80;31.70
64620;DHT22;51029;51.058;13.826;2023-08-17T12:49:55;43.20;34.10
64620;DHT22;51029;51.058;13.826;2023-08-17T12:52:21;42.60;36.50
64620;DHT22;51029;51.058;13.826;2023-08-17T12:54:46;45.00;38.90
64620;DHT22;51029;51.058;13.826;2023-08-17T12:57:12;46.80;32.30
64620;DHT22;51029;51.058;13.826;2023-08-17T12:59:37;51.20;29.10
64620;DHT22;51029;51.058;13.826;2023-08-17T13:02:03;53.20;27.60
64620;DHT22;51029;51.058;13.826;2023-08-17T13:04:28;55.90;25.70
64620;DHT22;51029;51.058;13.826;2023-08-17T13:06:54;57.40;24.00
64620;DHT22;51029;51.058;13.826;2023-08-17T13:09:20;58.90;23.20
64620;DHT22;51029;51.058;13.826;2023-08-17T13:11:46;58.80;23.60
64620;DHT22;51029;51.058;13.826;2023-08-17T13:14:13;59.40;23.10
64620;DHT22;51029;51.058;13.826;2023-08-17T13:16:39;59.60;23.30
64620;DHT22;51029;51.058;13.826;2023-08-17T13:19:05;60.00;22.80
64620;DHT22;51029;51.058;13.826;2023-08-17T13:21:30;59.50;22.90
64620;DHT22;51029;51.058;13.826;2023-08-17T13:23:56;60.40;22.50
64620;DHT22;51029;51.058;13.826;2023-08-17T13:26:22;58.10;22.60
64620;DHT22;51029;51.058;13.826;2023-08-17T13:28:48;57.00;22.60
64620;DHT22;51029;51.058;13.826;2023-08-17T13:31:13;52.20;25.30
64620;DHT22;51029;51.058;13.826;2023-08-17T13:33:39;53.80;26.10
64620;DHT22;51029;51.058;13.826;2023-08-17T13:36:04;54.20;25.00
64620;DHT22;51029;51.058;13.826;2023-08-17T13:38:30;52.80;25.90
64620;DHT22;51029;51.058;13.826;2023-08-17T13:40:56;49.90;26.60
64620;DHT22;51029;51.058;13.826;2023-08-17T13:43:22;48.40;28.70
64620;DHT22;51029;51.058;13.826;2023-08-17T13:45:48;48.10;28.80
64620;DHT22;51029;51.058;13.826;2023-08-17T13:48:13;46.90;29.30
64620;DHT22;51029;51.058;13.826;2023-08-17T13:50:39;45.90;30.80
64620;DHT22;51029;51.058;13.826;2023-08-17T13:53:05;44.60;31.90
64620;DHT22;51029;51.058;13.826;2023-08-17T13:55:31;43.60;33.30
64620;DHT22;51029;51.058;13.826;2023-08-17T13:57:57;42.00;36.50
64620;DHT22;51029;51.058;13.826;2023-08-17T14:00:24;41.00;37.10
64620;DHT22;51029;51.058;13.826;2023-08-17T14:02:49;40.10;40.10
64620;DHT22;51029;51.058;13.826;2023-08-17T14:05:15;39.30;40.80
64620;DHT22;51029;51.058;13.826;2023-08-17T14:07:40;38.30;42.60
64620;DHT22;51029;51.058;13.826;2023-08-17T14:10:06;37.60;45.00
64620;DHT22;51029;51.058;13.826;2023-08-17T14:12:32;37.00;47.20
64620;DHT22;51029;51.058;13.826;2023-08-17T14:14:59;36.40;49.30
64620;DHT22;51029;51.058;13.826;2023-08-17T14:17:24;36.10;50.90
64620;DHT22;51029;51.058;13.826;2023-08-17T14:19:50;35.60;53.90
64620;DHT22;51029;51.058;13.826;2023-08-17T14:22:15;35.30;58.50
64620;DHT22;51029;51.058;13.826;2023-08-17T14:24:41;34.70;59.40
64620;DHT22;51029;51.058;13.826;2023-08-17T14:27:06;34.30;61.80
64620;DHT22;51029;51.058;13.826;2023-08-17T14:29:32;33.90;67.60
64620;DHT22;51029;51.058;13.826;2023-08-17T14:31:57;33.80;68.00
64620;DHT22;51029;51.058;13.826;2023-08-17T14:34:23;33.70;69.00
64620;DHT22;51029;51.058;13.826;2023-08-17T14:36:49;33.50;71.40
64620;DHT22;51029;51.058;13.826;2023-08-17T14:39:14;33.40;74.10
64620;DHT22;51029;51.058;13.826;2023-08-17T14:41:40;33.30;75.20
64620;DHT22;51029;51.058;13.826;2023-08-17T14:44:05;33.10;76.50
64620;DHT22;51029;51.058;13.826;2023-08-17T14:46:31;33.00;77.90
64620;DHT22;51029;51.058;13.826;2023-08-17T14:48:57;32.90;79.10
64620;DHT22;51029;51.058;13.826;2023-08-17T14:51:23;32.80;81.70
64620;DHT22;51029;51.058;13.826;2023-08-17T14:53:49;32.80;81.60
64620;DHT22;51029;51.058;13.826;2023-08-17T14:56:14;32.80;83.20
64620;DHT22;51029;51.058;13.826;2023-08-17T14:58:40;32.70;83.40
64620;DHT22;51029;51.058;13.826;2023-08-17T15:01:05;32.70;82.90
64620;DHT22;51029;51.058;13.826;2023-08-17T15:03:31;32.70;84.40
64620;DHT22;51029;51.058;13.826;2023-08-17T15:05:57;32.60;87.30
64620;DHT22;51029;51.058;13.826;2023-08-17T15:08:23;32.40;87.60
64620;DHT22;51029;51.058;13.826;2023-08-17T15:10:48;32.50;88.10
64620;DHT22;51029;51.058;13.826;2023-08-17T15:13:14;32.50;89.60
64620;DHT22;51029;51.058;13.826;2023-08-17T15:15:41;32.50;89.90